LTBHLTFD

Guest
Details From LTBH - CANAKKALE
To LTFD - BALIKESIR KORFEZ
Flight Number -
Tags generated
Created
Modified
Stats Distance 44 nm / 82 km
Max Altitude 0 ft / 0 m
Waypoints 3
Social Downloads 1
Likes 0
Share VATSIM

Download

Looking for another format? Having issues loading an existing format? Contact us
Advertisement - Login to hide

Notes

Basic altitude profile: - Ascent Rate: 2500ft/min - Ascent Speed: 250kts - Cruise Altitude: 35000ft - Cruise Speed: 420kts - Descent Rate: 1500ft/min - Descent Speed: 250kts Options: - Use NATs: yes - Use PACOTS: yes - Use low airways: yes - Use high airways: no

Route

LTBH CNK LTFD

ID Type Via Altitude Latitude Longitude Leg Dist Tot Dist Heading (true) Name
O LTBH APT - 0 ft / 0 m 40.13771˚ 26.42676˚ - 0 nm - CANAKKALE
CNK VOR - 0 ft / 0 m 40.13630˚ 26.42797˚ 0 nm 0 nm 147° / 147° CANAKKALE VOR-DME
O LTFD APT - 0 ft / 0 m 39.55449˚ 27.01393˚ 44 nm 44 nm 142° / 142° BALIKESIR KORFEZ

Altitude Profile

Advertisement - Login to hide

LTBH

Details ICAO LTBH (CKZ)
Name CANAKKALE
Region Turkey
Timezone Europe/Istanbul (UTC+3.0)
Stats Elevation 23 ft / 7 m (AMSL)
Location 40.137709° 26.426764°
Runways 1
Magnetic Variation 5.032° E

METAR

LTBH 151750Z 21011KT 9999 SCT035 15/10 Q1013

Decode

TAF

Not found

Departure Runways

ID Width Length Bearing (true) Bearing (mag) Surface Threshold Offset Overrun Length
04 98 ft / 30 m 5,905 ft / 1,800 m 41.10° 36.07° Concrete 0 ft / 0 m 100 ft / 30 m
22 98 ft / 30 m 5,905 ft / 1,800 m 221.11° 216.08° Concrete 0 ft / 0 m 100 ft / 30 m

LTFD

Details ICAO LTFD (EDO)
Name BALIKESIR KORFEZ
Region Turkey
Timezone Europe/Istanbul (UTC+3.0)
Stats Elevation 50 ft / 15 m (AMSL)
Location 39.554492° 27.013927°
Runways 1
Magnetic Variation 5.030° E

METAR

LTFD 151750Z 24007KT 9999 SCT035 15/10 Q1015

Decode

TAF

Not found

Destination Runways

ID Width Length Bearing (true) Bearing (mag) Surface Threshold Offset Overrun Length
05 98 ft / 30 m 6,830 ft / 2,082 m 53.62° 48.59° Concrete 0 ft / 0 m 191 ft / 58 m
23 98 ft / 30 m 6,830 ft / 2,082 m 233.63° 228.60° Concrete 984 ft / 300 m 191 ft / 58 m

Popular Alternatives